Wind From: 11-12-2017 12:03 Until: 12-12-2017 06:00 warning for: Wind Level: Orange info button

Power and phone distribution networks may be disrupted for relatively long periods., Roofs and chimneys can be damaged. , Tree branches may break. , Vehicles can be deported. , Traffic may be disrupted, particularly on secondary roads in forest areas. Limit your trips. , Limit your speed in highway driving, especially if you drive a vehicle or hitch sensitive to wind. , Do not go for walks in forests or along the coast., In town, be vigilant against possible falling objects., Do not work on roofs and do not touch any electrical line fallen on the ground., Store or secure sensitive objects to wind or likely to be damaged., Always install power generators outside buildings. 


Meteo18 Weather Cam more information Meteo18 Weather Cam


Thunder radar more information blitzortung!


Rain radar more information rain snow radar


Visit our other weather sites:

Template documentation
and downloads

And another site



Weather Underground History page Text

Daily Summary for May 8, 2017 Units:  English    Metric   Both
« Previous Day
Next Day »
Daily Weekly Monthly Yearly Custom
  High: Low: Average:
Temperature: 57.4 °F 46.9 °F 50.4 °F
Dew Point: 49.5 °F 40.8 °F 44.8 °F
Humidity: 95 % 66 % 82 %
Wind Speed: 15 mph 0 mph 3.8 mph
Wind Gust: 19 mph - -
Wind:- - South
Pressure: 30.2 in 30.2 in -
Precipitation: 0 in    
Historical Graphs
 
 
Tabular Data for May 8, 2017
Time Temperature Dew Point Pressure Wind Wind Speed Wind Gust Humidity Rainfall Rate (Hourly)
00:02 49.8 °F 48.4 °F 30.2 in Calm   1 mph 95 % 0 in
00:07 50 °F 48.6 °F 30.2 in WSW 2 mph 2 mph 95 % 0 in
00:12 50.2 °F 48.7 °F 30.2 in NW 3 mph 4 mph 95 % 0 in
00:17 50.5 °F 49.1 °F 30.2 in Calm   7 mph 95 % 0 in
00:22 50.7 °F 49.3 °F 30.2 in West 1 mph 7 mph 95 % 0 in
00:32 50.9 °F 49.5 °F 30.2 in Calm   4 mph 95 % 0 in
00:37 50.9 °F 49.5 °F 30.2 in WNW 1 mph 2 mph 95 % 0 in
00:42 50.7 °F 49.3 °F 30.2 in WNW 1 mph 3 mph 95 % 0 in
00:47 50.5 °F 49.1 °F 30.2 in NW 3 mph 5 mph 95 % 0 in
00:52 50.5 °F 49.1 °F 30.2 in WNW 3 mph 5 mph 95 % 0 in
00:57 50.4 °F 48.7 °F 30.2 in NW 3 mph 5 mph 94 % 0 in
01:02 50.2 °F 48.6 °F 30.2 in WNW 2 mph 9 mph 94 % 0 in
01:12 50 °F 48 °F 30.2 in NW 1 mph 9 mph 93 % 0 in
01:17 49.8 °F 47.8 °F 30.2 in WNW 3 mph 7 mph 93 % 0 in
01:22 49.8 °F 47.8 °F 30.2 in NW 2 mph 7 mph 93 % 0 in
01:27 49.6 °F 47.7 °F 30.2 in NW 1 mph 6 mph 93 % 0 in
01:32 49.6 °F 47.7 °F 30.2 in Calm   6 mph 93 % 0 in
01:37 49.6 °F 47.7 °F 30.2 in WNW 2 mph 4 mph 93 % 0 in
01:42 49.5 °F 47.5 °F 30.2 in WNW 1 mph 5 mph 93 % 0 in
01:47 49.5 °F 47.5 °F 30.2 in NW 3 mph 6 mph 93 % 0 in
01:52 49.5 °F 47.3 °F 30.2 in NW 2 mph 6 mph 92 % 0 in
01:57 49.3 °F 47.1 °F 30.2 in WNW 2 mph 6 mph 92 % 0 in
02:02 48.9 °F 46.8 °F 30.2 in NW 2 mph 6 mph 92 % 0 in
02:12 48.6 °F 46.4 °F 30.2 in NW 4 mph 5 mph 92 % 0 in
02:17 48.4 °F 46.2 °F 30.2 in WNW 1 mph 5 mph 92 % 0 in
02:22 48 °F 45.9 °F 30.2 in West 1 mph 6 mph 92 % 0 in
02:27 47.8 °F 45.7 °F 30.2 in NW 2 mph 6 mph 92 % 0 in
02:32 47.7 °F 45.7 °F 30.2 in WNW 1 mph 6 mph 93 % 0 in
02:37 47.3 °F 45.3 °F 30.2 in NNW 3 mph 5 mph 93 % 0 in
02:42 47.1 °F 45.1 °F 30.2 in NW 1 mph 5 mph 93 % 0 in
02:47 47.1 °F 45.1 °F 30.2 in NW 2 mph 6 mph 93 % 0 in
02:52 47.1 °F 45.5 °F 30.2 in NW 3 mph 6 mph 94 % 0 in
02:57 46.9 °F 45.3 °F 30.2 in WNW 4 mph 6 mph 94 % 0 in
03:02 46.9 °F 45.3 °F 30.2 in NW 5 mph 5 mph 94 % 0 in
03:07 46.9 °F 45.3 °F 30.2 in NW 1 mph 6 mph 94 % 0 in
03:12 47.1 °F 45.5 °F 30.2 in WNW 1 mph 6 mph 94 % 0 in
03:17 47.1 °F 45.5 °F 30.2 in Calm   6 mph 94 % 0 in
03:22 47.1 °F 45.5 °F 30.2 in NW 3 mph 4 mph 94 % 0 in
03:27 47.1 °F 45.5 °F 30.2 in Calm   4 mph 94 % 0 in
03:32 47.1 °F 45.5 °F 30.2 in NNE 1 mph 4 mph 94 % 0 in
03:37 47.3 °F 45.7 °F 30.2 in Calm   4 mph 94 % 0 in
03:42 47.5 °F 46 °F 30.2 in NNE 3 mph 4 mph 95 % 0 in
03:52 47.8 °F 46.4 °F 30.2 in NNE 4 mph 9 mph 95 % 0 in
03:57 48 °F 46.6 °F 30.2 in North 3 mph 9 mph 95 % 0 in
04:02 48 °F 46.6 °F 30.2 in North 3 mph 9 mph 95 % 0 in
04:07 48.2 °F 46.8 °F 30.2 in NNW 3 mph 9 mph 95 % 0 in
04:12 48.4 °F 46.9 °F 30.2 in NNW 6 mph 9 mph 95 % 0 in
04:17 48.4 °F 46.9 °F 30.2 in NNE 6 mph 11 mph 95 % 0 in
04:22 48.6 °F 46.9 °F 30.2 in NE 2 mph 11 mph 94 % 0 in
04:27 48.6 °F 46.9 °F 30.2 in NNE 7 mph 12 mph 94 % 0 in
04:32 48.6 °F 46.9 °F 30.2 in North 4 mph 12 mph 94 % 0 in
04:37 48.6 °F 46.9 °F 30.2 in NNW 10 mph 12 mph 94 % 0 in
04:42 48.6 °F 46.9 °F 30.2 in NNW 2 mph 12 mph 94 % 0 in
04:47 48.6 °F 46.9 °F 30.2 in North 7 mph 11 mph 94 % 0 in
04:52 48.6 °F 46.9 °F 30.2 in NNW 7 mph 12 mph 94 % 0 in
04:57 48.6 °F 46.9 °F 30.2 in NNW 3 mph 12 mph 94 % 0 in
05:02 48.6 °F 46.9 °F 30.2 in NE 3 mph 12 mph 94 % 0 in
05:07 48.6 °F 46.9 °F 30.2 in NNE 15 mph 15 mph 94 % 0 in
05:12 48.4 °F 46.8 °F 30.2 in NE 8 mph 15 mph 94 % 0 in
05:17 48.4 °F 46.8 °F 30.2 in North 4 mph 15 mph 94 % 0 in
05:22 48.4 °F 46.4 °F 30.2 in North 9 mph 15 mph 93 % 0 in
05:27 48.2 °F 46.2 °F 30.2 in NNE 6 mph 12 mph 93 % 0 in
05:32 48 °F 46 °F 30.2 in NE 3 mph 12 mph 93 % 0 in
05:37 48 °F 46 °F 30.2 in ENE 5 mph 11 mph 93 % 0 in
05:42 48 °F 46 °F 30.2 in NW 4 mph 11 mph 93 % 0 in
05:47 48 °F 46 °F 30.2 in Calm   10 mph 93 % 0 in
05:52 48 °F 46 °F 30.2 in NE 4 mph 9 mph 93 % 0 in
05:57 48 °F 46 °F 30.2 in North 1 mph 7 mph 93 % 0 in
06:02 48 °F 46 °F 30.2 in NE 4 mph 7 mph 93 % 0 in
06:12 47.8 °F 45.9 °F 30.2 in North 6 mph 8 mph 93 % 0 in
06:17 47.8 °F 45.9 °F 30.2 in NNW 3 mph 8 mph 93 % 0 in
06:22 47.8 °F 45.9 °F 30.2 in North 10 mph 10 mph 93 % 0 in
06:27 47.8 °F 45.9 °F 30.2 in NE 4 mph 10 mph 93 % 0 in
06:32 47.8 °F 45.9 °F 30.2 in NE 6 mph 11 mph 93 % 0 in
06:42 47.8 °F 45.9 °F 30.2 in North 6 mph 11 mph 93 % 0 in
06:52 47.7 °F 45.7 °F 30.2 in NE 6 mph 10 mph 93 % 0 in
06:57 47.7 °F 45.7 °F 30.2 in North 4 mph 8 mph 93 % 0 in
07:02 47.7 °F 45.5 °F 30.2 in NE 11 mph 11 mph 92 % 0 in
07:12 47.1 °F 45 °F 30.2 in North 4 mph 11 mph 92 % 0 in
07:17 47.1 °F 45 °F 30.2 in NNE 2 mph 11 mph 92 % 0 in
07:22 47.1 °F 45 °F 30.2 in North 1 mph 9 mph 92 % 0 in
07:32 47.1 °F 45 °F 30.2 in Calm   9 mph 92 % 0 in
07:37 47.1 °F 45 °F 30.2 in North 1 mph 8 mph 92 % 0 in
07:42 47.3 °F 45.1 °F 30.2 in North 2 mph 8 mph 92 % 0 in
07:47 47.3 °F 45.1 °F 30.2 in NW 4 mph 8 mph 92 % 0 in
07:52 47.3 °F 44.8 °F 30.2 in North 3 mph 8 mph 91 % 0 in
07:57 47.5 °F 45 °F 30.2 in North 9 mph 9 mph 91 % 0 in
08:02 47.5 °F 45 °F 30.2 in North 4 mph 8 mph 91 % 0 in
08:12 47.5 °F 44.8 °F 30.2 in NNE 9 mph 10 mph 90 % 0 in
08:17 47.5 °F 44.4 °F 30.2 in NE 9 mph 12 mph 89 % 0 in
08:22 47.7 °F 44.6 °F 30.2 in NNE 4 mph 13 mph 89 % 0 in
08:27 47.7 °F 44.2 °F 30.2 in NNW 6 mph 13 mph 88 % 0 in
08:32 47.7 °F 44.2 °F 30.2 in North 3 mph 13 mph 88 % 0 in
08:37 47.8 °F 44.2 °F 30.2 in NE 5 mph 12 mph 87 % 0 in
08:42 47.8 °F 44.2 °F 30.2 in NNE 3 mph 11 mph 87 % 0 in
08:47 48 °F 44.4 °F 30.2 in NE 6 mph 11 mph 87 % 0 in
08:52 48.4 °F 44.1 °F 30.2 in North 4 mph 11 mph 85 % 0 in
08:57 48.4 °F 43.7 °F 30.2 in North 3 mph 11 mph 84 % 0 in
09:02 48.4 °F 43.7 °F 30.2 in NNE 5 mph 11 mph 84 % 0 in
09:07 48.6 °F 44.2 °F 30.2 in North 4 mph 12 mph 85 % 0 in
09:12 48.6 °F 44.2 °F 30.2 in NE 8 mph 12 mph 85 % 0 in
09:17 48.6 °F 44.2 °F 30.2 in NW 1 mph 11 mph 85 % 0 in
09:22 48.4 °F 44.1 °F 30.2 in North 6 mph 9 mph 85 % 0 in
09:27 48.4 °F 44.1 °F 30.2 in NNW 1 mph 10 mph 85 % 0 in
09:32 48.6 °F 44.6 °F 30.2 in NNE 2 mph 10 mph 86 % 0 in
09:37 48.4 °F 44.1 °F 30.2 in North 6 mph 11 mph 85 % 0 in
09:42 48.4 °F 44.1 °F 30.2 in North 3 mph 11 mph 85 % 0 in
09:47 48.2 °F 43.5 °F 30.2 in NNW 6 mph 11 mph 84 % 0 in
09:52 48.4 °F 44.1 °F 30.2 in NNE 6 mph 10 mph 85 % 0 in
09:57 48.4 °F 44.1 °F 30.2 in NNW 4 mph 9 mph 85 % 0 in
10:02 48.4 °F 43.2 °F 30.2 in NNW 4 mph 9 mph 82 % 0 in
10:12 48.4 °F 42.8 °F 30.2 in North 5 mph 13 mph 81 % 0 in
10:17 48.4 °F 43.2 °F 30.2 in NNW 7 mph 12 mph 82 % 0 in
10:22 48.4 °F 43.5 °F 30.2 in NNE 6 mph 12 mph 83 % 0 in
10:27 48.4 °F 43.2 °F 30.2 in ENE 5 mph 10 mph 82 % 0 in
10:32 48.6 °F 43.3 °F 30.2 in NNW 5 mph 10 mph 82 % 0 in
10:37 48.6 °F 43.7 °F 30.2 in WNW 3 mph 10 mph 83 % 0 in
10:42 48.6 °F 43.7 °F 30.2 in North 1 mph 10 mph 83 % 0 in
10:52 48.4 °F 43.5 °F 30.2 in NW 2 mph 7 mph 83 % 0 in
10:57 48.4 °F 43.5 °F 30.2 in NNW 3 mph 7 mph 83 % 0 in
11:02 48.4 °F 43.5 °F 30.2 in North 4 mph 9 mph 83 % 0 in
11:12 48.7 °F 42.8 °F 30.2 in North 6 mph 11 mph 80 % 0 in
11:17 48.7 °F 42.8 °F 30.2 in NNW 5 mph 11 mph 80 % 0 in
11:22 49.3 °F 43.3 °F 30.2 in NNW 3 mph 12 mph 80 % 0 in
11:27 50 °F 44.1 °F 30.2 in NNW 3 mph 12 mph 80 % 0 in
11:32 50.7 °F 44.1 °F 30.2 in NNE 1 mph 10 mph 78 % 0 in
11:37 51.3 °F 43.9 °F 30.2 in NW 6 mph 12 mph 76 % 0 in
11:42 51.3 °F 43.3 °F 30.2 in NE 5 mph 12 mph 74 % 0 in
11:47 51.3 °F 43.5 °F 30.2 in North 3 mph 13 mph 75 % 0 in
11:52 52 °F 45 °F 30.2 in NNE 2 mph 13 mph 77 % 0 in
12:02 52.5 °F 44.1 °F 30.2 in ENE 1 mph 12 mph 73 % 0 in
12:07 52.7 °F 43.9 °F 30.2 in NE 9 mph 12 mph 72 % 0 in
12:12 52.3 °F 43.9 °F 30.2 in NNW 4 mph 13 mph 73 % 0 in
12:17 52.3 °F 43.9 °F 30.2 in North 2 mph 13 mph 73 % 0 in
12:22 52.5 °F 44.4 °F 30.2 in NW 6 mph 12 mph 74 % 0 in
12:32 52.7 °F 45 °F 30.2 in NE 10 mph 11 mph 75 % 0 in
12:37 52.5 °F 44.4 °F 30.2 in NNW 6 mph 15 mph 74 % 0 in
12:42 52.3 °F 44.6 °F 30.2 in NNW 4 mph 15 mph 75 % 0 in
12:47 52.3 °F 45 °F 30.2 in NE 4 mph 15 mph 76 % 0 in
12:52 52.2 °F 44.4 °F 30.2 in North 4 mph 12 mph 75 % 0 in
12:57 52.2 °F 45.1 °F 30.2 in NNE 3 mph 10 mph 77 % 0 in
13:02 51.8 °F 44.1 °F 30.2 in North 4 mph 13 mph 75 % 0 in
13:07 51.6 °F 44.6 °F 30.2 in NNE 8 mph 13 mph 77 % 0 in
13:12 51.6 °F 44.2 °F 30.2 in East 2 mph 13 mph 76 % 0 in
13:17 52.2 °F 44.8 °F 30.2 in NW 1 mph 12 mph 76 % 0 in
13:22 52.5 °F 45.1 °F 30.2 in NNW 3 mph 9 mph 76 % 0 in
13:32 52.2 °F 45.1 °F 30.2 in North 3 mph 11 mph 77 % 0 in
13:37 52 °F 45 °F 30.2 in North 3 mph 11 mph 77 % 0 in
13:42 52 °F 45 °F 30.2 in NE 12 mph 12 mph 77 % 0 in
13:47 51.8 °F 44.8 °F 30.2 in NW 8 mph 12 mph 77 % 0 in
13:52 51.8 °F 44.4 °F 30.2 in North 2 mph 12 mph 76 % 0 in
13:57 52 °F 44.6 °F 30.2 in North 3 mph 12 mph 76 % 0 in
14:02 52.2 °F 44.8 °F 30.2 in North 4 mph 9 mph 76 % 0 in
14:07 52 °F 44.6 °F 30.2 in NNW 3 mph 9 mph 76 % 0 in
14:12 52 °F 44.6 °F 30.2 in North 4 mph 9 mph 76 % 0 in
14:17 52 °F 44.6 °F 30.2 in North 8 mph 9 mph 76 % 0 in
14:22 52.2 °F 44.8 °F 30.2 in NW 3 mph 9 mph 76 % 0 in
14:27 52.3 °F 45 °F 30.2 in NW 4 mph 9 mph 76 % 0 in
14:32 52.5 °F 44.8 °F 30.2 in WNW 3 mph 8 mph 75 % 0 in
14:37 52.5 °F 45.1 °F 30.2 in NNW 3 mph 6 mph 76 % 0 in
14:42 52.5 °F 44.8 °F 30.2 in NNW 6 mph 7 mph 75 % 0 in
14:47 52.5 °F 45.1 °F 30.2 in NNW 5 mph 9 mph 76 % 0 in
14:52 52.5 °F 44.8 °F 30.2 in North 1 mph 9 mph 75 % 0 in
14:57 52.5 °F 45.1 °F 30.2 in West 5 mph 7 mph 76 % 0 in
15:02 52.5 °F 45.1 °F 30.2 in NNW 5 mph 10 mph 76 % 0 in
15:07 52.3 °F 45.3 °F 30.2 in NNW 2 mph 10 mph 77 % 0 in
15:12 52.2 °F 45.9 °F 30.2 in NW 2 mph 10 mph 79 % 0 in
15:17 52.2 °F 45.5 °F 30.2 in NW 7 mph 8 mph 78 % 0 in
15:22 52 °F 45 °F 30.2 in NNW 3 mph 10 mph 77 % 0 in
15:27 52 °F 45 °F 30.2 in North 2 mph 11 mph 77 % 0 in
15:32 52.3 °F 46 °F 30.2 in NNE 5 mph 11 mph 79 % 0 in
15:42 53.4 °F 45.3 °F 30.2 in North 5 mph 8 mph 74 % 0 in
15:47 53.8 °F 45.7 °F 30.2 in Calm   6 mph 74 % 0 in
15:52 54.1 °F 45.3 °F 30.2 in NW 2 mph 6 mph 72 % 0 in
15:57 54.9 °F 45.3 °F 30.2 in NNW 6 mph 8 mph 70 % 0 in
16:02 54.9 °F 45 °F 30.2 in North 3 mph 10 mph 69 % 0 in
16:07 54.9 °F 46 °F 30.2 in NNE 2 mph 10 mph 72 % 0 in
16:12 54.9 °F 45.3 °F 30.2 in West 1 mph 10 mph 70 % 0 in
16:17 55.4 °F 46.2 °F 30.2 in NNW 1 mph 10 mph 71 % 0 in
16:22 55.6 °F 46.4 °F 30.2 in NNW 4 mph 10 mph 71 % 0 in
16:27 55.2 °F 46 °F 30.2 in NW 3 mph 8 mph 71 % 0 in
16:32 55.2 °F 46 °F 30.2 in NNE 6 mph 11 mph 71 % 0 in
16:37 55.8 °F 47.3 °F 30.2 in WNW 1 mph 11 mph 73 % 0 in
16:42 55.8 °F 45 °F 30.2 in North 4 mph 11 mph 67 % 0 in
16:47 55.6 °F 45.5 °F 30.2 in NNE 5 mph 11 mph 69 % 0 in
16:52 55.8 °F 45.7 °F 30.2 in NNW 2 mph 6 mph 69 % 0 in
16:57 56.5 °F 46.4 °F 30.2 in NNW 3 mph 11 mph 69 % 0 in
17:02 56.7 °F 45.5 °F 30.2 in NNW 5 mph 11 mph 66 % 0 in
17:07 57 °F 46.6 °F 30.2 in North 7 mph 11 mph 68 % 0 in
17:12 56.8 °F 45.7 °F 30.2 in NW 9 mph 9 mph 66 % 0 in
17:17 56.5 °F 46.4 °F 30.2 in NNE 7 mph 13 mph 69 % 0 in
17:22 55.9 °F 45.9 °F 30.2 in NE 4 mph 13 mph 69 % 0 in
17:27 55.8 °F 46.6 °F 30.2 in NE 5 mph 9 mph 71 % 0 in
17:32 55.9 °F 45.9 °F 30.2 in NNE 7 mph 8 mph 69 % 0 in
17:37 55.6 °F 46 °F 30.2 in North 6 mph 9 mph 70 % 0 in
17:42 55.8 °F 46.6 °F 30.2 in NNE 3 mph 9 mph 71 % 0 in
17:47 56.7 °F 46.9 °F 30.2 in NE 2 mph 9 mph 70 % 0 in
17:52 57 °F 45.9 °F 30.2 in NNW 3 mph 10 mph 66 % 0 in
17:57 57.4 °F 46 °F 30.2 in NNE 8 mph 10 mph 66 % 0 in
18:02 57 °F 46.2 °F 30.2 in North 9 mph 13 mph 67 % 0 in
18:07 56.5 °F 46 °F 30.2 in NNW 8 mph 13 mph 68 % 0 in
18:12 56.1 °F 45.7 °F 30.2 in North 3 mph 13 mph 68 % 0 in
18:17 55.9 °F 45.9 °F 30.2 in Calm   12 mph 69 % 0 in
18:22 55.8 °F 46 °F 30.2 in NNE 5 mph 8 mph 70 % 0 in
18:32 56.5 °F 46.4 °F 30.2 in NNE 6 mph 7 mph 69 % 0 in
18:37 56.8 °F 45.7 °F 30.2 in NE 14 mph 14 mph 66 % 0 in
18:42 55.8 °F 45.3 °F 30.2 in NNE 13 mph 14 mph 68 % 0 in
18:47 55.2 °F 44.8 °F 30.2 in NE 5 mph 15 mph 68 % 0 in
18:52 55 °F 44.6 °F 30.2 in NE 2 mph 15 mph 68 % 0 in
18:57 54.9 °F 44.4 °F 30.2 in WNW 6 mph 14 mph 68 % 0 in
19:07 54.5 °F 45 °F 30.2 in NE 11 mph 14 mph 70 % 0 in
19:12 54 °F 44.8 °F 30.2 in NNE 9 mph 17 mph 71 % 0 in
19:17 53.6 °F 44.4 °F 30.2 in NE 7 mph 17 mph 71 % 0 in
19:22 53.2 °F 44.1 °F 30.2 in NNE 6 mph 17 mph 71 % 0 in
19:27 52.9 °F 43.7 °F 30.2 in NNW 9 mph 18 mph 71 % 0 in
19:32 52.5 °F 43.7 °F 30.2 in NNE 10 mph 19 mph 72 % 0 in
19:37 52.2 °F 43 °F 30.2 in NNW 8 mph 19 mph 71 % 0 in
19:42 52.2 °F 43 °F 30.2 in NE 5 mph 19 mph 71 % 0 in
19:47 52.2 °F 42.3 °F 30.2 in NNE 8 mph 13 mph 69 % 0 in
19:52 52 °F 42.1 °F 30.2 in NNE 2 mph 12 mph 69 % 0 in
19:57 52 °F 42.1 °F 30.2 in Calm   12 mph 69 % 0 in
20:02 51.8 °F 41.9 °F 30.2 in NNE 1 mph 13 mph 69 % 0 in
20:07 51.6 °F 41.7 °F 30.2 in NE 10 mph 13 mph 69 % 0 in
20:12 51.6 °F 41.7 °F 30.2 in NNW 2 mph 13 mph 69 % 0 in
20:17 51.6 °F 42.1 °F 30.2 in North 3 mph 12 mph 70 % 0 in
20:22 51.6 °F 41.7 °F 30.2 in NE 4 mph 12 mph 69 % 0 in
20:27 51.6 °F 41.7 °F 30.2 in NNE 4 mph 9 mph 69 % 0 in
20:32 51.6 °F 41 °F 30.2 in NE 2 mph 15 mph 67 % 0 in
20:37 51.6 °F 41 °F 30.2 in NNE 6 mph 15 mph 67 % 0 in
20:42 51.3 °F 41.4 °F 30.2 in NNE 5 mph 15 mph 69 % 0 in
20:47 50.9 °F 41.5 °F 30.2 in NNW 4 mph 13 mph 70 % 0 in
20:52 50.5 °F 41.2 °F 30.2 in NNW 3 mph 10 mph 70 % 0 in
20:57 50.4 °F 41.4 °F 30.2 in North 1 mph 9 mph 71 % 0 in
21:02 49.6 °F 41 °F 30.2 in NNE 1 mph 9 mph 72 % 0 in
21:07 49.5 °F 41.2 °F 30.2 in NNE 6 mph 8 mph 73 % 0 in
21:12 48.9 °F 41 °F 30.2 in NNW 1 mph 8 mph 74 % 0 in
21:17 48.6 °F 41 °F 30.2 in NE 2 mph 7 mph 75 % 0 in
21:22 48.4 °F 41.2 °F 30.2 in NW 2 mph 7 mph 76 % 0 in
21:27 48 °F 40.8 °F 30.2 in Calm   5 mph 76 % 0 in
21:32 47.8 °F 41 °F 30.2 in North 4 mph 5 mph 77 % 0 in
21:37 47.7 °F 40.8 °F 30.2 in North 2 mph 8 mph 77 % 0 in
21:42 47.5 °F 41 °F 30.2 in NNE 3 mph 8 mph 78 % 0 in
21:47 47.5 °F 41 °F 30.2 in NNW 2 mph 8 mph 78 % 0 in
21:52 47.7 °F 41.2 °F 30.2 in Calm   8 mph 78 % 0 in
21:57 47.7 °F 41.2 °F 30.2 in Calm   6 mph 78 % 0 in
22:02 47.8 °F 41.4 °F 30.2 in Calm   6 mph 78 % 0 in
22:07 47.8 °F 41.4 °F 30.2 in NNW 2 mph 4 mph 78 % 0 in
22:12 47.8 °F 41.7 °F 30.2 in North 3 mph 4 mph 79 % 0 in
22:17 48 °F 41.5 °F 30.2 in North 3 mph 4 mph 78 % 0 in
22:22 48 °F 41.5 °F 30.2 in NNE 2 mph 4 mph 78 % 0 in
22:27 48.2 °F 42.1 °F 30.2 in NNE 2 mph 4 mph 79 % 0 in
22:32 48.4 °F 42.3 °F 30.2 in North 3 mph 6 mph 79 % 0 in
22:37 48.4 °F 42.3 °F 30.2 in NNW 1 mph 6 mph 79 % 0 in
22:42 48.4 °F 42.3 °F 30.2 in NW 2 mph 5 mph 79 % 0 in
22:47 48.4 °F 42.3 °F 30.2 in NNW 2 mph 5 mph 79 % 0 in
22:52 48.6 °F 42.3 °F 30.2 in NNE 1 mph 5 mph 79 % 0 in
22:57 48.6 °F 42.3 °F 30.2 in NNE 2 mph 5 mph 79 % 0 in
23:02 48.6 °F 42.3 °F 30.2 in NNW 1 mph 5 mph 79 % 0 in
23:12 48.2 °F 42.6 °F 30.2 in Calm   3 mph 81 % 0 in
23:17 48 °F 42.4 °F 30.2 in Calm   1 mph 81 % 0 in
23:22 48 °F 42.8 °F 30.2 in Calm   1 mph 82 % 0 in
23:27 48 °F 42.8 °F 30.2 in Calm   1 mph 82 % 0 in
23:32 48 °F 43.2 °F 30.2 in Calm   2 mph 83 % 0 in
23:42 48 °F 43.3 °F 30.2 in North 1 mph 4 mph 84 % 0 in
23:47 48 °F 43.3 °F 30.2 in North 2 mph 4 mph 84 % 0 in
23:52 48.2 °F 43.5 °F 30.2 in NNW 3 mph 4 mph 84 % 0 in
23:57 48.4 °F 43.7 °F 30.2 in Calm   4 mph 84 % 0 in
Meteo18
Compliments of Weather Underground - 4 mb

Script developed by  Jim McMurry - jmcmurry@mwt.net Adapted for the template by  Wim van der Kuil - Leuven-Template.eu

You find our weather info also at:

European Weather Network

Weather Underground

Equipment we use:

Weather-station
Davis Vue

Weather-program
Meteohub

Weather-server
Raspberry PI 2 B+

Provider
1 and 1

Davis Vue

Meteohub

Raspberry PI 2 B+

1 and 1